Time;durP1;ratioP1;P1;durP2;ratioP2;P2;SDS_P1;SDS_P2;PMS_P1;PMS_P2;Temp;Humidity;BMP_temperature;BMP_pressure;BME280_temperature;BME280_humidity;BME280_pressure;Samples;Min_cycle;Max_cycle;Signal;HPM_P1;HPM_P2
2021/04/09 00:01:21;;;;;;;1.52;0.70;;;17.70;42.70;;;;;;5100968;28;20164;-80
2021/04/09 00:03:52;;;;;;;2.47;0.80;;;17.70;42.70;;;;;;5083739;28;20255;-79
2021/04/09 00:06:25;;;;;;;1.95;0.90;;;17.70;43.10;;;;;;5083830;28;20157;-80
2021/04/09 00:08:59;;;;;;;1.50;1.00;;;17.70;42.60;;;;;;5084011;28;20165;-80
2021/04/09 00:11:26;;;;;;;1.30;0.85;;;17.70;43.00;;;;;;5084148;28;20223;-80
2021/04/09 00:13:59;;;;;;;2.50;0.90;;;17.70;43.00;;;;;;5083496;28;20260;-80
2021/04/09 00:16:32;;;;;;;2.40;0.90;;;17.70;42.80;;;;;;5083759;28;20166;-80
2021/04/09 00:19:33;;;;;;;2.50;1.08;;;17.70;42.80;;;;;;5084195;28;20169;-80
2021/04/09 00:22:10;;;;;;;2.78;0.90;;;17.70;43.00;;;;;;5086788;28;20177;-79
2021/04/09 00:24:43;;;;;;;3.08;0.82;;;17.70;42.90;;;;;;5083994;28;20165;-80
2021/04/09 00:27:18;;;;;;;2.00;1.02;;;17.70;43.10;;;;;;5083737;28;20165;-80
2021/04/09 00:29:52;;;;;;;1.50;0.90;;;17.70;43.00;;;;;;5083091;28;20173;-80
2021/04/09 00:32:27;;;;;;;1.83;0.80;;;17.60;43.10;;;;;;5083813;28;20204;-79
2021/04/09 00:34:54;;;;;;;3.03;0.90;;;17.60;42.70;;;;;;5099919;28;20236;-80
2021/04/09 00:37:20;;;;;;;2.10;0.85;;;17.60;42.70;;;;;;5083166;28;20184;-80
2021/04/09 00:39:54;;;;;;;4.40;1.20;;;17.60;42.80;;;;;;5100843;28;20157;-79
2021/04/09 00:42:29;;;;;;;4.65;1.05;;;17.70;42.90;;;;;;5100950;28;20157;-79
2021/04/09 00:45:11;;;;;;;2.20;0.82;;;17.60;42.90;;;;;;5100560;28;20217;-80
2021/04/09 00:47:42;;;;;;;1.77;0.90;;;17.60;43.00;;;;;;5101059;28;20192;-79
2021/04/09 00:50:19;;;;;;;2.42;0.90;;;17.60;43.00;;;;;;5099983;28;20280;-79
2021/04/09 00:52:55;;;;;;;2.38;0.63;;;17.60;43.00;;;;;;5099562;28;20141;-80
2021/04/09 00:55:25;;;;;;;2.50;1.05;;;17.60;42.90;;;;;;5100033;28;20219;-80
2021/04/09 00:58:00;;;;;;;2.40;0.90;;;17.60;43.10;;;;;;5100698;28;20180;-80
2021/04/09 01:00:31;;;;;;;3.60;0.80;;;17.60;42.90;;;;;;5099491;28;20173;-80
2021/04/09 01:03:07;;;;;;;2.40;0.90;;;17.60;42.90;;;;;;5098796;28;20145;-80
2021/04/09 01:05:43;;;;;;;3.65;1.00;;;17.70;43.00;;;;;;5100798;28;20173;-79
2021/04/09 01:08:28;;;;;;;1.52;0.98;;;17.70;42.90;;;;;;5099884;28;20137;-80
2021/04/09 01:19:20;;;;;;;1.23;0.80;;;17.60;43.00;;;;;;6019685;22;22026;-80
2021/04/09 01:22:05;;;;;;;2.63;1.00;;;17.60;43.10;;;;;;5008894;28;20164;-80
2021/04/09 01:25:26;;;;;;;2.10;0.75;;;17.60;43.00;;;;;;5001678;28;20159;-78
2021/04/09 01:28:09;;;;;;;1.50;1.00;;;17.60;43.70;;;;;;5023152;28;20191;-80
2021/04/09 01:31:24;;;;;;;2.45;1.10;;;17.60;43.00;;;;;;5022523;28;20168;-80
2021/04/09 01:33:54;;;;;;;1.83;0.80;;;17.60;42.90;;;;;;5022356;28;20175;-80
2021/04/09 01:36:27;;;;;;;1.83;1.02;;;17.60;42.70;;;;;;5006160;28;20175;-80
2021/04/09 01:39:05;;;;;;;1.77;0.80;;;17.60;43.00;;;;;;5006532;28;20152;-80
2021/04/09 01:41:36;;;;;;;3.28;0.90;;;17.60;43.00;;;;;;5022400;28;20206;-80
2021/04/09 01:44:04;;;;;;;2.42;1.20;;;17.60;43.00;;;;;;5005879;28;20176;-80
2021/04/09 01:46:33;;;;;;;1.88;1.13;;;17.60;42.90;;;;;;5005691;28;20164;-81
2021/04/09 01:49:04;;;;;;;1.45;0.88;;;17.50;43.00;;;;;;5022044;28;20172;-80
2021/04/09 01:51:37;;;;;;;1.85;1.05;;;17.50;43.00;;;;;;5005977;28;20155;-80
2021/04/09 01:54:11;;;;;;;1.73;0.98;;;17.50;43.00;;;;;;5005539;28;20195;-81
2021/04/09 01:56:44;;;;;;;1.15;1.00;;;17.50;43.00;;;;;;5006172;28;20180;-80
2021/04/09 01:59:12;;;;;;;3.40;1.20;;;17.50;43.00;;;;;;5005540;28;20160;-81
2021/04/09 02:01:56;;;;;;;1.27;0.80;;;17.50;43.10;;;;;;5005372;28;20171;-80
2021/04/09 02:04:24;;;;;;;1.40;0.93;;;17.50;43.10;;;;;;5005410;28;20175;-79
2021/04/09 02:06:55;;;;;;;2.65;1.00;;;17.50;43.10;;;;;;5003434;28;20227;-80
2021/04/09 02:09:26;;;;;;;1.50;1.10;;;17.50;43.10;;;;;;5003427;28;20167;-80
2021/04/09 02:12:01;;;;;;;1.52;0.95;;;17.50;43.10;;;;;;5002827;28;20215;-80
2021/04/09 02:14:32;;;;;;;1.45;0.80;;;17.50;43.20;;;;;;5018017;28;20203;-81
2021/04/09 02:17:02;;;;;;;1.63;0.80;;;17.40;43.10;;;;;;5002859;28;20159;-80
2021/04/09 02:19:28;;;;;;;2.83;1.20;;;17.40;43.20;;;;;;5001801;28;20227;-80
2021/04/09 02:22:00;;;;;;;1.60;0.88;;;17.40;43.20;;;;;;5002858;28;20162;-80
2021/04/09 02:24:39;;;;;;;2.63;0.88;;;17.40;43.00;;;;;;5003022;28;20174;-81
2021/04/09 02:27:18;;;;;;;1.40;0.90;;;17.40;43.00;;;;;;5002562;28;20167;-81
2021/04/09 02:29:53;;;;;;;2.42;0.93;;;17.40;43.10;;;;;;5019041;28;20181;-80
2021/04/09 02:32:34;;;;;;;1.20;0.80;;;17.40;43.00;;;;;;5002682;28;20202;-80
2021/04/09 02:35:13;;;;;;;1.88;1.10;;;17.40;43.00;;;;;;5002755;28;20203;-80
2021/04/09 02:37:49;;;;;;;1.40;1.10;;;17.40;43.00;;;;;;5002760;28;20190;-81
2021/04/09 02:40:27;;;;;;;1.90;1.27;;;17.40;43.00;;;;;;5019224;28;20198;-80
2021/04/09 02:42:56;;;;;;;1.65;0.90;;;17.40;43.10;;;;;;5002530;28;20151;-80
2021/04/09 02:45:27;;;;;;;2.05;0.90;;;17.40;43.00;;;;;;5002664;28;20167;-80
2021/04/09 02:48:10;;;;;;;0.80;0.70;;;17.40;43.10;;;;;;5001688;28;20190;-81
2021/04/09 02:50:43;;;;;;;1.42;0.90;;;17.40;43.10;;;;;;5018228;28;20190;-80
2021/04/09 02:53:18;;;;;;;1.20;1.00;;;17.40;43.10;;;;;;5001984;28;20175;-80
2021/04/09 02:55:51;;;;;;;2.63;0.80;;;17.30;43.00;;;;;;5001924;28;20262;-80
2021/04/09 02:58:20;;;;;;;2.05;0.95;;;17.40;43.10;;;;;;5002433;28;20163;-80
2021/04/09 03:00:55;;;;;;;0.90;0.85;;;17.40;43.00;;;;;;4969728;28;20179;-80
2021/04/09 03:03:23;;;;;;;1.42;0.90;;;17.40;43.10;;;;;;5018671;28;20155;-80
2021/04/09 03:05:51;;;;;;;2.72;1.13;;;17.40;43.10;;;;;;5002102;28;20171;-80
2021/04/09 03:08:26;;;;;;;1.10;0.73;;;17.40;43.10;;;;;;5001436;28;20170;-80
2021/04/09 03:10:59;;;;;;;1.67;1.00;;;17.40;43.20;;;;;;5001813;28;20151;-80
2021/04/09 03:13:32;;;;;;;1.67;0.90;;;17.40;43.10;;;;;;5002179;28;20175;-80
2021/04/09 03:16:05;;;;;;;2.65;1.00;;;17.40;43.10;;;;;;5001419;28;20207;-81
2021/04/09 03:18:37;;;;;;;1.02;0.80;;;17.40;43.10;;;;;;5000410;28;20174;-80
2021/04/09 03:21:05;;;;;;;1.08;0.80;;;17.40;43.10;;;;;;4978983;28;20185;-81
2021/04/09 03:23:41;;;;;;;1.17;0.82;;;17.40;43.00;;;;;;4995077;28;20631;-80
2021/04/09 03:26:13;;;;;;;1.77;0.95;;;17.40;43.10;;;;;;4978697;28;20624;-81
2021/04/09 03:28:51;;;;;;;1.55;0.82;;;17.40;43.00;;;;;;4958862;29;20192;-81
2021/04/09 03:31:31;;;;;;;3.42;1.00;;;17.40;43.00;;;;;;4975101;29;20205;-80
2021/04/09 03:33:59;;;;;;;1.77;1.00;;;17.40;43.00;;;;;;4975019;29;20213;-80
2021/04/09 03:36:36;;;;;;;1.20;0.70;;;17.40;42.80;;;;;;4913264;29;20242;-80
2021/04/09 03:39:17;;;;;;;2.10;1.00;;;17.40;43.00;;;;;;4913881;29;20184;-80
2021/04/09 03:42:06;;;;;;;2.17;0.95;;;17.40;43.00;;;;;;4898734;29;20184;-80
2021/04/09 03:44:32;;;;;;;1.73;1.10;;;17.40;43.10;;;;;;4898663;29;20188;-80
2021/04/09 03:47:00;;;;;;;2.75;1.10;;;17.40;43.00;;;;;;4913171;29;20275;-80
2021/04/09 03:49:32;;;;;;;1.42;1.10;;;17.40;43.00;;;;;;4898128;29;20208;-81
2021/04/09 03:52:00;;;;;;;1.83;1.10;;;17.30;42.90;;;;;;4898281;29;20188;-80
2021/04/09 03:54:33;;;;;;;2.03;1.35;;;17.30;43.00;;;;;;4927484;29;20297;-81
2021/04/09 03:57:12;;;;;;;2.03;1.08;;;17.30;43.00;;;;;;4973883;29;20170;-80
2021/04/09 03:59:47;;;;;;;3.08;1.40;;;17.30;42.90;;;;;;4984476;28;20265;-81
2021/04/09 04:02:20;;;;;;;3.05;1.02;;;17.30;43.00;;;;;;4946179;28;20191;-81
2021/04/09 04:04:51;;;;;;;1.25;0.80;;;17.40;42.90;;;;;;4978617;28;20177;-81
2021/04/09 04:07:26;;;;;;;1.05;0.88;;;17.40;42.70;;;;;;4978582;28;20207;-81
2021/04/09 04:10:14;;;;;;;1.65;0.95;;;17.50;43.10;;;;;;4994174;28;20160;-81
2021/04/09 04:12:49;;;;;;;1.85;0.88;;;17.60;42.00;;;;;;4996011;28;20180;-80
2021/04/09 04:15:24;;;;;;;1.20;0.90;;;17.70;41.30;;;;;;4993551;28;20278;-80
2021/04/09 04:18:10;;;;;;;1.25;0.93;;;17.80;41.50;;;;;;4961608;28;20186;-80
2021/04/09 04:20:37;;;;;;;0.90;0.60;;;17.70;41.70;;;;;;4996077;28;20286;-80
2021/04/09 04:23:05;;;;;;;1.27;0.85;;;17.70;41.60;;;;;;4958758;29;20189;-81
2021/04/09 04:25:33;;;;;;;1.05;0.80;;;17.70;41.70;;;;;;4973816;28;20196;-82
2021/04/09 04:28:08;;;;;;;1.13;0.80;;;17.60;41.90;;;;;;4973871;28;20205;-79
2021/04/09 04:30:35;;;;;;;1.27;0.90;;;17.70;41.50;;;;;;4976216;28;20151;-80
2021/04/09 04:33:15;;;;;;;1.48;0.80;;;17.70;41.70;;;;;;4976789;28;20169;-80
2021/04/09 04:35:44;;;;;;;0.70;0.70;;;17.70;41.50;;;;;;4976339;28;20229;-81
2021/04/09 04:38:18;;;;;;;1.50;1.00;;;17.70;41.30;;;;;;4956106;29;20227;-80
2021/04/09 04:40:48;;;;;;;0.90;0.60;;;17.70;41.20;;;;;;4941157;29;20688;-81
2021/04/09 04:43:24;;;;;;;1.25;0.88;;;17.80;41.00;;;;;;4957236;29;20183;-81
2021/04/09 04:45:59;;;;;;;1.35;0.93;;;17.80;41.30;;;;;;4941212;29;20202;-80
2021/04/09 04:48:32;;;;;;;1.00;0.90;;;17.70;41.50;;;;;;4957783;29;20194;-80
2021/04/09 04:51:05;;;;;;;2.25;0.88;;;17.70;41.20;;;;;;4941244;29;20171;-80
2021/04/09 04:53:38;;;;;;;1.15;0.77;;;17.70;41.50;;;;;;4956402;29;20183;-80
2021/04/09 04:56:09;;;;;;;1.02;0.70;;;17.70;41.40;;;;;;4940993;29;20199;-80
2021/04/09 04:59:12;;;;;;;1.38;0.82;;;17.70;41.10;;;;;;4956959;29;20183;-80
2021/04/09 05:01:53;;;;;;;1.90;0.75;;;17.70;41.50;;;;;;4998826;28;20161;-80
2021/04/09 05:04:35;;;;;;;1.25;0.77;;;17.70;41.50;;;;;;4998643;28;20210;-80
2021/04/09 05:07:04;;;;;;;1.80;1.00;;;17.70;41.60;;;;;;4998543;28;20165;-80
2021/04/09 05:09:36;;;;;;;1.20;1.00;;;17.70;41.20;;;;;;5011674;28;20191;-81
2021/04/09 05:12:08;;;;;;;1.27;0.90;;;17.70;41.30;;;;;;5018532;28;20255;-80
2021/04/09 05:14:48;;;;;;;1.15;0.90;;;17.70;41.40;;;;;;5018620;28;20176;-80
2021/04/09 05:17:23;;;;;;;1.20;0.90;;;17.60;41.50;;;;;;5018646;28;20171;-81
2021/04/09 05:19:49;;;;;;;1.45;0.90;;;17.70;41.20;;;;;;4997302;28;20243;-81
2021/04/09 05:22:16;;;;;;;1.98;1.00;;;17.70;41.30;;;;;;4981671;28;20267;-81
2021/04/09 05:24:50;;;;;;;0.95;0.80;;;17.70;41.20;;;;;;4982425;28;20197;-81
2021/04/09 05:27:26;;;;;;;1.40;0.77;;;17.70;41.30;;;;;;4982192;28;20162;-81
2021/04/09 05:30:07;;;;;;;0.82;0.80;;;17.70;41.20;;;;;;4981691;28;20161;-81
2021/04/09 05:32:37;;;;;;;1.45;0.82;;;17.70;41.10;;;;;;4966642;28;20181;-81
2021/04/09 05:35:11;;;;;;;0.75;0.60;;;17.80;41.50;;;;;;4981589;28;20196;-81
2021/04/09 05:37:38;;;;;;;1.40;0.80;;;17.60;41.00;;;;;;4982298;28;20187;-81
2021/04/09 05:40:24;;;;;;;1.35;0.90;;;17.70;41.30;;;;;;4965702;28;20209;-81
2021/04/09 05:43:04;;;;;;;0.80;0.80;;;17.70;41.00;;;;;;4965714;28;20176;-81
2021/04/09 05:45:41;;;;;;;1.58;0.80;;;17.70;41.40;;;;;;4943656;29;20224;-81
2021/04/09 05:48:17;;;;;;;1.00;0.80;;;17.60;41.50;;;;;;4927929;29;20170;-81
2021/04/09 05:50:55;;;;;;;1.30;0.88;;;17.60;41.40;;;;;;4957606;29;20253;-80
2021/04/09 05:53:46;;;;;;;0.77;0.60;;;17.60;41.40;;;;;;4927964;29;20154;-81
2021/04/09 05:56:25;;;;;;;0.70;0.70;;;17.60;41.30;;;;;;4945968;29;20210;-81
2021/04/09 05:59:09;;;;;;;1.55;1.00;;;17.70;41.40;;;;;;4947162;29;20192;-81
2021/04/09 06:01:57;;;;;;;0.90;0.73;;;17.70;41.20;;;;;;4947389;29;20196;-81
2021/04/09 06:04:41;;;;;;;0.90;0.70;;;17.60;41.20;;;;;;4962847;29;20177;-80
2021/04/09 06:07:17;;;;;;;1.25;0.80;;;17.60;41.20;;;;;;4931522;29;20219;-80
2021/04/09 06:09:46;;;;;;;0.80;0.80;;;17.70;41.30;;;;;;4931679;29;20173;-81
2021/04/09 06:12:21;;;;;;;1.13;0.80;;;17.70;41.20;;;;;;4947163;29;20210;-80
2021/04/09 06:14:48;;;;;;;0.77;0.60;;;17.70;41.20;;;;;;4947160;29;20208;-80
2021/04/09 06:19:53;;;;;;;1.10;0.80;;;17.70;41.20;;;;;;5264306;23;20215;-81
2021/04/09 06:22:20;;;;;;;0.98;0.80;;;17.70;40.80;;;;;;5005380;28;20163;-80
2021/04/09 06:27:43;;;;;;;1.65;0.60;;;17.70;41.20;;;;;;5036841;28;20192;-81
2021/04/09 06:30:12;;;;;;;1.23;0.80;;;17.70;41.00;;;;;;5037681;28;20191;-80
2021/04/09 06:32:39;;;;;;;1.10;0.80;;;17.80;40.90;;;;;;5038123;28;20163;-81
2021/04/09 06:37:43;;;;;;;1.15;0.80;;;17.80;40.80;;;;;;4997841;28;20234;-81
2021/04/09 06:40:14;;;;;;;1.00;0.90;;;17.80;40.80;;;;;;4967741;28;20188;-80
2021/04/09 06:42:47;;;;;;;1.10;0.80;;;17.70;41.10;;;;;;4982735;28;20165;-80
2021/04/09 06:45:18;;;;;;;0.85;0.77;;;17.70;41.20;;;;;;5014667;28;20161;-80
2021/04/09 06:47:58;;;;;;;1.17;0.80;;;17.70;40.80;;;;;;5014796;28;20173;-80
2021/04/09 06:50:43;;;;;;;0.82;0.80;;;17.70;40.90;;;;;;5015091;28;20171;-80
2021/04/09 06:53:19;;;;;;;0.75;0.68;;;17.70;40.80;;;;;;4996813;28;20188;-80
2021/04/09 06:55:50;;;;;;;0.82;0.70;;;17.70;41.00;;;;;;5014838;28;20204;-80
2021/04/09 06:58:21;;;;;;;1.52;0.80;;;17.70;41.20;;;;;;4997479;28;20211;-80
2021/04/09 07:04:00;;;;;;;0.82;0.77;;;17.70;41.00;;;;;;5419238;22;20238;-80
2021/04/09 07:06:39;;;;;;;0.95;0.80;;;17.70;40.90;;;;;;5003942;28;20164;-81
2021/04/09 07:09:17;;;;;;;1.00;0.80;;;17.70;40.90;;;;;;5020404;28;20155;-80
2021/04/09 07:12:00;;;;;;;0.55;0.50;;;17.70;41.00;;;;;;4929714;29;20193;-80
2021/04/09 07:15:15;;;;;;;0.77;0.75;;;17.70;40.90;;;;;;4961729;29;20211;-80
2021/04/09 07:18:03;;;;;;;0.98;0.77;;;17.80;40.50;;;;;;5129358;23;20386;-81
2021/04/09 07:20:33;;;;;;;0.85;0.73;;;17.80;40.40;;;;;;4949929;28;20180;-80
2021/04/09 07:23:28;;;;;;;0.60;0.60;;;17.90;40.50;;;;;;4950489;28;20204;-80
2021/04/09 07:25:59;;;;;;;0.90;0.80;;;17.90;40.50;;;;;;4933881;28;20192;-80
2021/04/09 07:28:34;;;;;;;1.35;0.70;;;17.90;40.40;;;;;;4965889;28;20161;-80
2021/04/09 07:31:14;;;;;;;1.10;0.77;;;17.90;40.50;;;;;;4982091;28;20184;-80
2021/04/09 07:33:54;;;;;;;2.15;0.85;;;18.00;40.50;;;;;;5272896;23;20222;-80
2021/04/09 07:37:08;;;;;;;1.30;0.70;;;17.90;40.50;;;;;;5006962;28;20215;-80
2021/04/09 07:45:22;;;;;;;1.10;0.73;;;17.90;40.70;;;;;;5055456;23;20259;-79
2021/04/09 07:48:07;;;;;;;0.80;0.80;;;17.90;40.80;;;;;;4980812;28;20209;-80
2021/04/09 07:50:41;;;;;;;1.00;0.80;;;17.90;40.80;;;;;;5065281;23;20222;-79
2021/04/09 07:53:34;;;;;;;0.80;0.70;;;17.90;40.80;;;;;;4976331;28;20192;-79
2021/04/09 07:56:07;;;;;;;1.38;0.90;;;17.80;40.90;;;;;;5079364;23;20256;-79
2021/04/09 07:58:41;;;;;;;0.60;0.60;;;17.80;40.80;;;;;;4960202;29;20184;-80
2021/04/09 08:01:33;;;;;;;1.20;0.70;;;17.80;41.00;;;;;;4958325;29;20184;-79
2021/04/09 08:04:10;;;;;;;0.95;0.70;;;17.80;41.00;;;;;;4957780;29;20166;-80
2021/04/09 08:06:45;;;;;;;1.05;0.80;;;17.90;41.00;;;;;;4970768;29;20162;-79
2021/04/09 08:09:11;;;;;;;1.83;0.90;;;17.90;40.90;;;;;;4952026;29;20192;-79
2021/04/09 08:11:46;;;;;;;1.27;0.82;;;17.90;41.10;;;;;;4968389;28;20166;-80
2021/04/09 08:14:26;;;;;;;1.10;0.80;;;17.90;41.10;;;;;;4956696;29;20268;-80
2021/04/09 08:17:07;;;;;;;1.63;0.85;;;17.90;40.90;;;;;;4975773;29;20247;-81
2021/04/09 08:19:43;;;;;;;1.13;1.00;;;17.90;41.20;;;;;;4972248;29;20263;-80
2021/04/09 08:22:27;;;;;;;3.20;1.00;;;17.90;41.20;;;;;;4975708;29;20161;-79
2021/04/09 08:25:31;;;;;;;1.60;0.73;;;17.90;41.30;;;;;;4900619;29;20241;-79
2021/04/09 08:28:12;;;;;;;4.82;0.90;;;17.90;41.50;;;;;;4923798;29;20187;-81
2021/04/09 08:30:45;;;;;;;1.33;0.80;;;17.90;41.30;;;;;;4918527;29;20631;-80
2021/04/09 08:33:12;;;;;;;2.17;0.70;;;18.00;41.00;;;;;;4921693;29;20194;-80
2021/04/09 08:35:44;;;;;;;2.47;0.90;;;18.10;41.00;;;;;;4917624;29;20202;-80
2021/04/09 08:38:15;;;;;;;0.68;0.68;;;18.00;41.10;;;;;;4918911;29;20231;-79
2021/04/09 08:40:43;;;;;;;2.38;0.65;;;18.00;41.00;;;;;;4920942;29;20234;-80
2021/04/09 08:43:16;;;;;;;2.15;0.73;;;18.10;40.90;;;;;;4921860;29;20203;-80
2021/04/09 08:45:43;;;;;;;3.05;0.70;;;18.10;40.90;;;;;;4921422;29;20256;-80
2021/04/09 08:48:12;;;;;;;3.05;1.00;;;18.10;41.00;;;;;;4922791;29;20155;-79
2021/04/09 08:50:50;;;;;;;1.73;0.90;;;18.10;41.00;;;;;;4922795;29;20186;-80
2021/04/09 08:53:38;;;;;;;1.40;0.90;;;18.10;41.10;;;;;;4923257;29;20198;-80
2021/04/09 08:56:05;;;;;;;4.18;0.80;;;18.10;41.00;;;;;;4922351;29;20250;-80
2021/04/09 08:58:46;;;;;;;0.63;0.63;;;18.10;41.30;;;;;;4906895;29;20182;-81
2021/04/09 09:01:27;;;;;;;1.35;0.90;;;18.10;41.30;;;;;;4922224;29;20198;-79
2021/04/09 09:04:15;;;;;;;1.52;0.80;;;18.10;41.40;;;;;;4941691;28;20180;-80
2021/04/09 09:06:51;;;;;;;1.23;0.70;;;18.10;41.30;;;;;;4978958;29;20162;-80
2021/04/09 09:09:41;;;;;;;0.93;0.80;;;18.10;41.40;;;;;;4961305;29;20242;-81
2021/04/09 09:12:18;;;;;;;1.30;0.73;;;18.10;41.40;;;;;;4959898;29;20181;-80
2021/04/09 09:14:56;;;;;;;1.88;0.82;;;18.10;41.40;;;;;;4961026;29;20326;-80
2021/04/09 09:17:26;;;;;;;1.30;0.80;;;18.20;41.00;;;;;;4961682;29;20173;-80
2021/04/09 09:20:08;;;;;;;2.42;0.70;;;18.10;41.30;;;;;;4975090;29;20189;-79
2021/04/09 09:22:54;;;;;;;1.63;0.77;;;18.20;41.20;;;;;;4974251;28;20197;-80
2021/04/09 09:25:37;;;;;;;2.72;0.80;;;18.20;41.50;;;;;;4970071;29;20185;-81
2021/04/09 09:28:08;;;;;;;2.35;1.00;;;18.10;41.10;;;;;;4955678;29;20231;-80
2021/04/09 09:30:54;;;;;;;3.15;0.75;;;18.20;41.20;;;;;;4956422;29;20164;-81
2021/04/09 09:33:24;;;;;;;4.68;0.80;;;18.30;40.90;;;;;;4973700;29;20162;-80
2021/04/09 09:35:55;;;;;;;2.78;0.60;;;18.30;41.10;;;;;;4972774;29;20193;-80
2021/04/09 09:38:47;;;;;;;2.65;0.88;;;18.30;41.00;;;;;;4972863;29;20218;-80
2021/04/09 09:41:36;;;;;;;1.92;0.70;;;18.30;41.00;;;;;;4975322;29;20189;-80
2021/04/09 09:44:03;;;;;;;2.03;0.68;;;18.30;40.90;;;;;;4971721;29;20180;-81
2021/04/09 09:46:55;;;;;;;2.33;0.68;;;18.30;40.80;;;;;;4969698;29;20173;-81
2021/04/09 09:49:22;;;;;;;5.95;0.93;;;18.40;41.00;;;;;;4973131;29;20169;-80
2021/04/09 09:51:52;;;;;;;1.33;0.70;;;18.40;41.00;;;;;;4958124;29;20189;-80
2021/04/09 09:54:29;;;;;;;4.15;0.90;;;18.40;40.70;;;;;;4959030;29;20161;-79
2021/04/09 09:56:56;;;;;;;1.73;0.90;;;18.40;41.00;;;;;;4971856;29;20221;-80
2021/04/09 09:59:31;;;;;;;1.88;0.98;;;18.40;40.80;;;;;;4964627;29;20146;-80
2021/04/09 10:01:59;;;;;;;1.40;0.77;;;18.30;41.10;;;;;;4965530;29;20169;-79
2021/04/09 10:04:29;;;;;;;3.15;0.90;;;18.30;41.10;;;;;;4966106;29;20229;-79
2021/04/09 10:07:05;;;;;;;2.08;0.90;;;18.30;41.40;;;;;;4964558;29;20196;-78
2021/04/09 10:09:40;;;;;;;0.98;0.70;;;18.30;41.00;;;;;;4970778;28;20185;-80
2021/04/09 10:12:07;;;;;;;2.83;0.70;;;18.30;41.40;;;;;;4971637;29;20263;-82
2021/04/09 10:14:47;;;;;;;5.93;0.70;;;18.30;41.30;;;;;;4957101;29;20197;-80
2021/04/09 10:17:14;;;;;;;0.80;0.70;;;18.30;41.20;;;;;;4973016;29;20146;-80
2021/04/09 10:20:00;;;;;;;2.00;0.80;;;18.30;41.40;;;;;;4973825;29;20149;-78
2021/04/09 10:22:28;;;;;;;3.38;1.02;;;18.30;41.40;;;;;;4956724;29;20188;-82
2021/04/09 10:24:56;;;;;;;4.65;1.00;;;18.20;41.30;;;;;;4958076;29;20169;-81
2021/04/09 10:27:23;;;;;;;0.90;0.82;;;18.20;41.50;;;;;;4957647;29;20168;-82
2021/04/09 10:29:50;;;;;;;3.05;0.80;;;18.20;41.40;;;;;;4973528;28;20229;-81
2021/04/09 10:32:19;;;;;;;1.27;0.60;;;18.20;41.50;;;;;;4970134;29;20217;-79
2021/04/09 10:35:08;;;;;;;2.05;0.70;;;18.20;41.40;;;;;;4964221;28;20221;-83
2021/04/09 10:37:35;;;;;;;0.90;0.80;;;18.30;41.40;;;;;;4973633;29;20250;-82
2021/04/09 10:40:02;;;;;;;2.45;0.80;;;18.30;41.40;;;;;;4961251;29;20217;-77
2021/04/09 10:42:28;;;;;;;1.33;0.90;;;18.30;41.40;;;;;;4959378;29;20241;-80
2021/04/09 10:44:54;;;;;;;0.95;0.60;;;18.30;41.40;;;;;;4947757;29;20181;-81
2021/04/09 10:47:30;;;;;;;2.17;0.82;;;18.30;41.40;;;;;;4963384;29;20520;-78
2021/04/09 10:49:57;;;;;;;8.23;1.10;;;18.30;41.50;;;;;;4967986;28;20173;-77
2021/04/09 10:52:25;;;;;;;4.25;0.80;;;18.20;41.50;;;;;;4973301;29;20168;-80
2021/04/09 10:55:02;;;;;;;1.42;0.68;;;18.20;41.50;;;;;;4973017;28;20194;-79
2021/04/09 10:57:34;;;;;;;1.38;1.05;;;18.20;41.50;;;;;;4971929;29;20220;-80
2021/04/09 11:00:04;;;;;;;1.35;0.70;;;18.20;41.50;;;;;;4957099;29;20174;-80
2021/04/09 11:02:30;;;;;;;1.92;0.80;;;18.20;41.50;;;;;;4970132;28;20225;-80
2021/04/09 11:04:58;;;;;;;6.65;0.80;;;18.20;41.30;;;;;;4968836;29;20166;-79
2021/04/09 11:07:40;;;;;;;8.07;1.25;;;18.30;41.40;;;;;;4972497;28;20217;-79
2021/04/09 11:10:08;;;;;;;14.70;1.92;;;18.30;41.30;;;;;;4973798;29;20176;-80
2021/04/09 11:12:35;;;;;;;11.85;1.67;;;18.30;41.30;;;;;;4970950;28;20185;-79
2021/04/09 11:15:09;;;;;;;31.77;2.00;;;18.30;41.20;;;;;;4974361;29;20205;-83
2021/04/09 11:17:36;;;;;;;20.67;2.03;;;18.30;41.40;;;;;;4974236;29;20166;-79
2021/04/09 11:20:23;;;;;;;25.65;2.45;;;18.30;41.30;;;;;;4970217;29;20165;-79
2021/04/09 11:23:13;;;;;;;21.77;2.17;;;18.30;41.40;;;;;;4901209;29;20191;-79
2021/04/09 11:25:47;;;;;;;13.50;1.75;;;18.30;41.30;;;;;;4900568;29;20183;-79
2021/04/09 11:28:28;;;;;;;24.30;2.13;;;18.30;41.00;;;;;;4885983;29;20171;-79
2021/04/09 11:31:03;;;;;;;10.48;2.03;;;18.30;41.10;;;;;;4900959;29;20171;-77
2021/04/09 11:33:39;;;;;;;13.88;1.60;;;18.30;41.10;;;;;;4899873;29;20206;-77
2021/04/09 11:36:22;;;;;;;15.80;1.20;;;18.30;41.10;;;;;;4914111;29;20219;-79
2021/04/09 11:39:07;;;;;;;6.25;1.48;;;18.20;41.30;;;;;;4917566;29;20166;-80
2021/04/09 11:41:34;;;;;;;2.70;0.73;;;18.20;41.20;;;;;;4918704;29;20187;-79
2021/04/09 11:44:21;;;;;;;8.73;1.40;;;18.20;41.30;;;;;;4899977;29;20163;-80
2021/04/09 11:46:48;;;;;;;2.65;0.98;;;18.20;41.10;;;;;;4915593;29;20206;-78
2021/04/09 11:49:15;;;;;;;5.88;1.20;;;18.20;41.10;;;;;;4919106;29;20171;-77
2021/04/09 11:51:43;;;;;;;6.05;0.90;;;18.30;41.00;;;;;;4910077;29;20640;-77
2021/04/09 11:54:13;;;;;;;3.28;0.90;;;18.30;41.00;;;;;;4909967;29;20183;-79
2021/04/09 11:56:53;;;;;;;2.70;1.00;;;18.30;41.00;;;;;;4911293;29;20231;-78
2021/04/09 11:59:20;;;;;;;3.67;0.82;;;18.30;41.80;;;;;;4927066;29;20195;-79
2021/04/09 12:01:48;;;;;;;8.80;1.08;;;18.30;41.20;;;;;;4968455;29;20177;-79
2021/04/09 12:04:40;;;;;;;6.13;1.00;;;18.30;41.10;;;;;;4970867;28;20176;-79
2021/04/09 12:07:21;;;;;;;4.22;0.70;;;18.20;41.20;;;;;;4971320;28;20230;-79
2021/04/09 12:09:51;;;;;;;4.57;0.82;;;18.30;41.30;;;;;;4971741;29;20180;-79
2021/04/09 12:12:26;;;;;;;4.07;1.00;;;18.30;41.10;;;;;;4974530;29;20168;-79
2021/04/09 12:14:58;;;;;;;2.47;0.90;;;18.20;41.10;;;;;;4974037;29;20193;-81
2021/04/09 12:17:25;;;;;;;4.35;1.00;;;18.30;41.00;;;;;;4958734;29;20173;-81
2021/04/09 12:20:00;;;;;;;4.80;1.00;;;18.30;41.10;;;;;;4958484;29;20158;-80
2021/04/09 12:22:37;;;;;;;3.22;1.00;;;18.30;40.90;;;;;;4973717;29;20165;-80
2021/04/09 12:25:10;;;;;;;3.78;0.93;;;18.20;41.00;;;;;;4958155;29;20189;-81
2021/04/09 12:27:48;;;;;;;4.57;1.10;;;18.20;41.10;;;;;;4957903;29;20173;-81
2021/04/09 12:30:22;;;;;;;3.22;0.82;;;18.20;41.10;;;;;;4958621;29;20197;-80
2021/04/09 12:32:54;;;;;;;8.05;1.00;;;18.30;41.00;;;;;;4957855;29;20166;-80
2021/04/09 12:35:32;;;;;;;5.65;0.90;;;18.20;40.80;;;;;;4971570;29;20201;-80
2021/04/09 12:38:02;;;;;;;5.80;0.90;;;18.30;40.80;;;;;;4953213;29;20229;-82
2021/04/09 12:40:29;;;;;;;3.95;0.88;;;18.30;40.90;;;;;;4966571;29;20164;-81
2021/04/09 12:42:55;;;;;;;3.10;1.00;;;18.30;40.80;;;;;;4950275;29;20182;-82
2021/04/09 12:45:22;;;;;;;2.88;1.05;;;18.30;40.80;;;;;;4965056;29;20173;-82
2021/04/09 12:47:58;;;;;;;3.45;0.90;;;18.30;40.90;;;;;;4949206;29;20170;-82
2021/04/09 12:50:33;;;;;;;3.97;0.90;;;18.30;40.90;;;;;;4949296;29;20160;-81
2021/04/09 12:53:07;;;;;;;2.85;0.80;;;18.30;40.70;;;;;;4949557;29;20311;-81
2021/04/09 12:55:35;;;;;;;2.85;0.82;;;18.30;40.70;;;;;;4967860;28;20239;-83
2021/04/09 12:58:04;;;;;;;5.20;0.95;;;18.30;40.70;;;;;;4937793;28;20180;-82
2021/04/09 13:00:33;;;;;;;3.65;1.17;;;18.30;40.60;;;;;;4956611;28;20185;-83
2021/04/09 13:03:08;;;;;;;4.43;0.90;;;18.30;40.80;;;;;;4972672;28;20153;-83
2021/04/09 13:05:34;;;;;;;3.70;0.90;;;18.30;40.90;;;;;;4956583;28;20168;-82
2021/04/09 13:08:01;;;;;;;7.43;1.10;;;18.30;40.60;;;;;;4971029;28;20172;-81
2021/04/09 13:10:29;;;;;;;2.95;1.00;;;18.30;40.80;;;;;;4971683;28;20161;-82
2021/04/09 13:12:55;;;;;;;3.30;0.90;;;18.20;40.90;;;;;;4956214;28;20169;-83
2021/04/09 13:15:30;;;;;;;4.57;0.90;;;18.30;40.80;;;;;;4956258;28;20307;-82
2021/04/09 13:18:00;;;;;;;2.92;0.90;;;18.30;40.80;;;;;;4976863;28;20245;-80
2021/04/09 13:20:31;;;;;;;3.17;0.85;;;18.30;40.90;;;;;;4963840;28;20200;-79
2021/04/09 13:22:58;;;;;;;2.50;0.82;;;18.30;40.90;;;;;;4979708;28;20220;-79
2021/04/09 13:25:35;;;;;;;3.05;1.00;;;18.40;40.60;;;;;;4980149;28;20172;-81
2021/04/09 13:28:02;;;;;;;1.88;0.82;;;18.40;40.60;;;;;;4978983;28;20161;-81
2021/04/09 13:30:32;;;;;;;6.30;1.45;;;18.40;40.30;;;;;;4978249;28;20173;-79
2021/04/09 13:33:03;;;;;;;1.85;0.80;;;18.40;40.30;;;;;;4960583;28;20165;-79
2021/04/09 13:35:31;;;;;;;1.23;0.77;;;18.50;40.20;;;;;;4972308;28;20256;-79
2021/04/09 13:37:59;;;;;;;4.05;0.88;;;18.40;40.00;;;;;;4955681;28;20180;-79
2021/04/09 13:40:28;;;;;;;3.53;0.70;;;18.30;40.50;;;;;;4955626;28;20172;-78
2021/04/09 13:42:56;;;;;;;0.90;0.70;;;18.30;40.50;;;;;;4970463;28;20224;-80
2021/04/09 13:45:30;;;;;;;3.30;0.90;;;18.30;40.00;;;;;;4955914;28;20261;-79
2021/04/09 13:47:58;;;;;;;2.45;0.88;;;18.40;40.10;;;;;;4969875;28;20164;-79
2021/04/09 13:50:28;;;;;;;0.93;0.60;;;18.50;40.00;;;;;;4970987;28;20167;-78